Time;durP1;ratioP1;P1;durP2;ratioP2;P2;SDS_P1;SDS_P2;PMS_P1;PMS_P2;Temp;Humidity;BMP_temperature;BMP_pressure;BME280_temperature;BME280_humidity;BME280_pressure;Samples;Min_cycle;Max_cycle;Signal;HPM_P1;HPM_P2
2022/07/20 00:00:52;;;;;;;4.95;1.75;;;;;;;;;;5136515;27;20072;-57
2022/07/20 00:03:18;;;;;;;6.50;2.20;;;;;;;;;;5151653;27;20374;-57
2022/07/20 00:05:45;;;;;;;4.55;1.90;;;;;;;;;;5149566;27;20046;-57
2022/07/20 00:08:11;;;;;;;4.15;2.65;;;;;;;;;;5150943;27;20549;-57
2022/07/20 00:13:23;;;;;;;3.03;1.50;;;;;;;;;;5130777;28;20374;-57
2022/07/20 00:15:49;;;;;;;3.22;1.90;;;;;;;;;;5130277;28;20093;-57
2022/07/20 00:18:15;;;;;;;6.13;1.75;;;;;;;;;;5130862;28;20039;-57
2022/07/20 00:20:42;;;;;;;2.03;1.45;;;;;;;;;;5145007;27;20039;-57
2022/07/20 00:23:08;;;;;;;1.92;1.38;;;;;;;;;;5132921;27;20139;-57
2022/07/20 00:25:34;;;;;;;3.25;1.60;;;;;;;;;;5138191;27;20043;-57
2022/07/20 00:28:00;;;;;;;2.33;1.67;;;;;;;;;;5151165;27;20046;-57
2022/07/20 00:30:26;;;;;;;3.10;1.70;;;;;;;;;;5151512;27;20529;-57
2022/07/20 00:32:52;;;;;;;4.60;1.65;;;;;;;;;;5150946;27;20047;-57
2022/07/20 00:35:18;;;;;;;2.97;1.90;;;;;;;;;;5110705;28;20090;-57
2022/07/20 00:37:45;;;;;;;2.55;1.55;;;;;;;;;;5114156;27;20130;-57
2022/07/20 00:40:12;;;;;;;3.75;1.83;;;;;;;;;;5133028;27;20509;-56
2022/07/20 00:42:39;;;;;;;3.45;1.88;;;;;;;;;;5135531;27;20080;-56
2022/07/20 00:45:06;;;;;;;1.90;1.52;;;;;;;;;;5133540;27;20535;-56
2022/07/20 00:47:32;;;;;;;4.28;1.70;;;;;;;;;;5119372;27;20379;-56
2022/07/20 00:49:58;;;;;;;4.15;2.08;;;;;;;;;;5132930;27;20077;-56
2022/07/20 00:52:24;;;;;;;3.65;1.70;;;;;;;;;;5132806;27;20571;-56
2022/07/20 00:54:53;;;;;;;4.28;1.48;;;;;;;;;;5134755;27;20353;-56
2022/07/20 00:57:20;;;;;;;2.85;1.75;;;;;;;;;;5132931;27;20058;-57
2022/07/20 00:59:46;;;;;;;3.70;1.75;;;;;;;;;;5132549;27;20126;-56
2022/07/20 01:02:12;;;;;;;4.45;2.17;;;;;;;;;;5131633;27;20047;-56
2022/07/20 01:04:39;;;;;;;3.72;1.70;;;;;;;;;;5140061;27;20043;-56
2022/07/20 01:07:05;;;;;;;2.60;1.50;;;;;;;;;;5130970;27;20050;-56
2022/07/20 01:09:31;;;;;;;2.70;1.70;;;;;;;;;;5118658;27;20039;-56
2022/07/20 01:11:57;;;;;;;2.13;1.58;;;;;;;;;;5132179;27;20290;-56
2022/07/20 01:14:23;;;;;;;4.60;1.90;;;;;;;;;;5131991;27;20128;-56
2022/07/20 01:16:49;;;;;;;3.80;1.83;;;;;;;;;;5130902;27;20039;-57
2022/07/20 01:19:15;;;;;;;2.72;1.77;;;;;;;;;;5130502;27;20070;-56
2022/07/20 01:21:41;;;;;;;3.22;1.50;;;;;;;;;;5133636;27;20035;-57
2022/07/20 01:24:11;;;;;;;2.90;1.30;;;;;;;;;;5132488;27;20115;-56
2022/07/20 01:26:41;;;;;;;3.13;1.58;;;;;;;;;;5133108;27;20066;-56
2022/07/20 01:29:07;;;;;;;2.58;1.50;;;;;;;;;;5131670;27;20519;-56
2022/07/20 01:31:34;;;;;;;2.10;1.60;;;;;;;;;;5130351;27;20047;-56
2022/07/20 01:34:00;;;;;;;5.45;1.70;;;;;;;;;;5131519;27;20043;-56
2022/07/20 01:36:26;;;;;;;2.45;1.48;;;;;;;;;;5130622;27;20126;-56
2022/07/20 01:38:52;;;;;;;2.55;1.73;;;;;;;;;;5132186;27;20512;-56
2022/07/20 01:41:18;;;;;;;4.07;1.70;;;;;;;;;;5132925;27;20042;-56
2022/07/20 01:43:44;;;;;;;2.63;1.67;;;;;;;;;;5116693;27;20383;-56
2022/07/20 01:46:10;;;;;;;3.28;1.65;;;;;;;;;;5131182;27;20367;-56
2022/07/20 01:48:37;;;;;;;2.42;1.58;;;;;;;;;;5131612;27;20050;-56
2022/07/20 01:51:03;;;;;;;3.42;1.70;;;;;;;;;;5129211;27;20047;-57
2022/07/20 01:53:29;;;;;;;3.28;1.75;;;;;;;;;;5112908;27;20046;-57
2022/07/20 01:55:56;;;;;;;2.53;1.70;;;;;;;;;;5130399;27;20035;-56
2022/07/20 01:58:22;;;;;;;3.17;1.80;;;;;;;;;;5131123;27;20035;-56
2022/07/20 02:00:48;;;;;;;3.58;1.77;;;;;;;;;;5119229;27;20082;-56
2022/07/20 02:03:14;;;;;;;2.85;1.80;;;;;;;;;;5131243;27;20032;-56
2022/07/20 02:05:40;;;;;;;3.63;1.90;;;;;;;;;;5131963;27;20043;-56
2022/07/20 02:08:07;;;;;;;3.10;1.60;;;;;;;;;;5131827;27;20066;-56
2022/07/20 02:10:33;;;;;;;4.32;1.73;;;;;;;;;;5136225;27;20391;-56
2022/07/20 02:12:59;;;;;;;2.72;1.77;;;;;;;;;;5149666;27;20398;-56
2022/07/20 02:18:12;;;;;;;4.57;2.20;;;;;;;;;;5133046;27;20058;-56
2022/07/20 02:20:38;;;;;;;3.40;2.10;;;;;;;;;;5132425;27;20054;-56
2022/07/20 02:23:05;;;;;;;5.68;2.30;;;;;;;;;;5132756;27;20039;-56
2022/07/20 02:25:31;;;;;;;2.40;1.60;;;;;;;;;;5133300;27;20761;-56
2022/07/20 02:27:57;;;;;;;2.60;1.90;;;;;;;;;;5134115;27;20041;-56
2022/07/20 02:30:23;;;;;;;3.75;1.70;;;;;;;;;;5133317;27;20053;-56
2022/07/20 02:32:49;;;;;;;2.97;1.70;;;;;;;;;;5140437;27;20038;-56
2022/07/20 02:35:15;;;;;;;2.88;1.55;;;;;;;;;;5152428;27;20042;-56
2022/07/20 02:37:42;;;;;;;2.33;1.40;;;;;;;;;;5152878;27;20490;-56
2022/07/20 02:40:08;;;;;;;2.50;1.45;;;;;;;;;;5153526;27;20050;-56
2022/07/20 02:42:35;;;;;;;2.55;1.70;;;;;;;;;;5134890;27;20046;-56
2022/07/20 02:45:01;;;;;;;3.17;1.88;;;;;;;;;;5129693;27;20137;-56
2022/07/20 02:47:27;;;;;;;3.20;1.73;;;;;;;;;;5153695;27;20050;-56
2022/07/20 02:49:53;;;;;;;2.30;1.48;;;;;;;;;;5153331;27;20043;-56
2022/07/20 02:52:19;;;;;;;3.67;1.75;;;;;;;;;;5148553;27;20034;-56
2022/07/20 02:54:45;;;;;;;2.17;1.65;;;;;;;;;;5136969;27;20131;-56
2022/07/20 02:57:11;;;;;;;3.03;1.80;;;;;;;;;;5141807;27;20035;-56
2022/07/20 02:59:37;;;;;;;3.58;1.75;;;;;;;;;;5153677;27;20050;-56
2022/07/20 03:02:03;;;;;;;2.28;1.65;;;;;;;;;;5152729;27;20038;-56
2022/07/20 03:04:29;;;;;;;2.22;1.83;;;;;;;;;;5141590;27;20073;-56
2022/07/20 03:06:55;;;;;;;3.85;1.83;;;;;;;;;;5143854;27;20052;-56
2022/07/20 03:09:21;;;;;;;3.47;1.95;;;;;;;;;;5134194;27;20066;-56
2022/07/20 03:11:47;;;;;;;3.53;1.95;;;;;;;;;;5136845;27;20499;-56
2022/07/20 03:14:13;;;;;;;4.68;1.80;;;;;;;;;;5131863;27;20130;-56
2022/07/20 03:16:39;;;;;;;3.97;1.88;;;;;;;;;;5136310;27;20511;-56
2022/07/20 03:19:05;;;;;;;3.28;1.75;;;;;;;;;;5132472;27;20482;-56
2022/07/20 03:21:31;;;;;;;3.35;2.10;;;;;;;;;;5112040;27;20395;-56
2022/07/20 03:23:57;;;;;;;2.33;1.75;;;;;;;;;;5132248;27;20095;-56
2022/07/20 03:26:23;;;;;;;3.47;2.00;;;;;;;;;;5131351;27;20035;-56
2022/07/20 03:28:49;;;;;;;3.75;1.73;;;;;;;;;;5131657;27;20471;-56
2022/07/20 03:31:15;;;;;;;2.95;1.60;;;;;;;;;;5130966;27;20483;-56
2022/07/20 03:33:41;;;;;;;2.72;1.63;;;;;;;;;;5132070;27;20042;-56
2022/07/20 03:36:09;;;;;;;1.52;1.42;;;;;;;;;;5129520;27;20503;-56
2022/07/20 03:38:35;;;;;;;2.45;1.63;;;;;;;;;;5132243;27;20047;-56
2022/07/20 03:41:01;;;;;;;3.40;1.75;;;;;;;;;;5137016;27;20054;-56
2022/07/20 03:43:27;;;;;;;2.45;1.50;;;;;;;;;;5113647;27;20099;-56
2022/07/20 03:45:53;;;;;;;2.95;1.77;;;;;;;;;;5131562;27;20605;-56
2022/07/20 03:48:19;;;;;;;3.38;1.67;;;;;;;;;;5112880;27;20039;-56
2022/07/20 03:50:46;;;;;;;1.80;1.40;;;;;;;;;;5130710;27;20047;-56
2022/07/20 03:53:13;;;;;;;2.97;1.70;;;;;;;;;;5130671;27;20100;-56
2022/07/20 03:55:39;;;;;;;2.35;1.70;;;;;;;;;;5113485;27;20071;-56
2022/07/20 03:58:05;;;;;;;2.47;1.42;;;;;;;;;;5131182;27;20039;-56
2022/07/20 04:00:31;;;;;;;3.08;1.90;;;;;;;;;;5131709;27;20131;-56
2022/07/20 04:02:57;;;;;;;2.58;1.40;;;;;;;;;;5131696;27;20130;-56
2022/07/20 04:05:23;;;;;;;3.15;1.63;;;;;;;;;;5140912;27;20515;-56
2022/07/20 04:07:49;;;;;;;2.88;1.63;;;;;;;;;;5112137;27;20035;-56
2022/07/20 04:10:16;;;;;;;2.78;1.80;;;;;;;;;;5144325;27;20138;-56
2022/07/20 04:12:42;;;;;;;2.83;1.65;;;;;;;;;;5131573;27;20096;-56
2022/07/20 04:15:08;;;;;;;3.67;1.75;;;;;;;;;;5113535;27;20062;-56
2022/07/20 04:17:34;;;;;;;3.67;1.85;;;;;;;;;;5141806;27;20047;-56
2022/07/20 04:20:01;;;;;;;2.92;1.70;;;;;;;;;;5112989;28;20050;-56
2022/07/20 04:22:27;;;;;;;2.88;1.83;;;;;;;;;;5111780;28;20039;-56
2022/07/20 04:24:53;;;;;;;3.33;1.60;;;;;;;;;;5131382;28;20118;-56
2022/07/20 04:27:19;;;;;;;2.15;1.60;;;;;;;;;;5131050;28;20074;-56
2022/07/20 04:29:45;;;;;;;3.40;1.73;;;;;;;;;;5131142;28;20047;-56
2022/07/20 04:32:11;;;;;;;4.25;1.65;;;;;;;;;;5130718;28;20043;-56
2022/07/20 04:34:37;;;;;;;2.65;1.73;;;;;;;;;;5113007;28;20118;-58
2022/07/20 04:37:03;;;;;;;3.00;1.80;;;;;;;;;;5134819;27;20118;-55
2022/07/20 04:39:29;;;;;;;2.80;1.77;;;;;;;;;;5135131;27;20093;-55
2022/07/20 04:41:55;;;;;;;3.35;1.70;;;;;;;;;;5096383;28;20051;-55
2022/07/20 04:44:21;;;;;;;3.60;1.70;;;;;;;;;;5130514;27;20038;-55
2022/07/20 04:46:47;;;;;;;4.53;2.05;;;;;;;;;;5112349;28;20046;-55
2022/07/20 04:49:13;;;;;;;2.88;1.70;;;;;;;;;;5138306;27;20080;-55
2022/07/20 04:51:39;;;;;;;3.03;1.80;;;;;;;;;;5149905;27;20062;-55
2022/07/20 04:54:05;;;;;;;4.07;1.80;;;;;;;;;;5131120;28;20038;-55
2022/07/20 04:56:31;;;;;;;2.88;1.70;;;;;;;;;;5135965;27;20042;-55
2022/07/20 04:58:58;;;;;;;2.97;1.73;;;;;;;;;;5134348;27;20043;-55
2022/07/20 05:01:24;;;;;;;3.03;1.70;;;;;;;;;;5134816;27;20474;-55
2022/07/20 05:03:50;;;;;;;2.40;1.55;;;;;;;;;;5143867;27;20119;-55
2022/07/20 05:06:16;;;;;;;2.00;1.70;;;;;;;;;;5115118;27;20046;-55
2022/07/20 05:08:42;;;;;;;2.95;1.83;;;;;;;;;;5131744;27;20055;-55
2022/07/20 05:11:08;;;;;;;2.58;1.80;;;;;;;;;;5131004;28;20043;-55
2022/07/20 05:13:34;;;;;;;1.80;1.50;;;;;;;;;;5130400;28;20142;-55
2022/07/20 05:16:00;;;;;;;4.05;1.70;;;;;;;;;;5130780;28;20051;-55
2022/07/20 05:18:28;;;;;;;1.90;1.45;;;;;;;;;;5130297;28;20044;-55
2022/07/20 05:20:54;;;;;;;3.60;1.75;;;;;;;;;;5136600;27;20134;-55
2022/07/20 05:23:20;;;;;;;3.28;1.58;;;;;;;;;;5141471;27;20067;-55
2022/07/20 05:25:49;;;;;;;2.90;2.13;;;;;;;;;;5155428;27;20615;-55
2022/07/20 05:28:18;;;;;;;2.47;1.50;;;;;;;;;;5142116;27;20462;-55
2022/07/20 05:30:44;;;;;;;3.95;2.38;;;;;;;;;;5155052;27;20050;-55
2022/07/20 05:33:10;;;;;;;5.63;2.20;;;;;;;;;;5140076;27;20066;-55
2022/07/20 05:35:36;;;;;;;2.03;1.67;;;;;;;;;;5132735;27;20209;-55
2022/07/20 05:38:02;;;;;;;2.72;1.85;;;;;;;;;;5140398;27;20050;-55
2022/07/20 05:40:28;;;;;;;2.83;1.70;;;;;;;;;;5136647;27;20137;-55
2022/07/20 05:42:54;;;;;;;4.53;1.70;;;;;;;;;;5150795;27;20042;-55
2022/07/20 05:45:20;;;;;;;2.17;1.50;;;;;;;;;;5145676;27;20054;-55
2022/07/20 05:47:46;;;;;;;2.33;1.60;;;;;;;;;;5134234;27;20051;-55
2022/07/20 05:50:12;;;;;;;1.60;1.50;;;;;;;;;;5114967;27;20739;-55
2022/07/20 05:52:38;;;;;;;2.60;1.60;;;;;;;;;;5132510;27;20852;-55
2022/07/20 05:55:05;;;;;;;2.10;1.50;;;;;;;;;;5133960;27;20364;-55
2022/07/20 05:57:31;;;;;;;2.38;1.58;;;;;;;;;;5115448;27;20456;-55
2022/07/20 05:59:57;;;;;;;4.05;1.92;;;;;;;;;;5133893;27;20047;-55
2022/07/20 06:02:23;;;;;;;3.95;1.83;;;;;;;;;;5133249;27;20039;-55
2022/07/20 06:04:49;;;;;;;3.33;1.63;;;;;;;;;;5133738;27;20114;-55
2022/07/20 06:07:15;;;;;;;3.40;1.60;;;;;;;;;;5131969;27;20043;-55
2022/07/20 06:09:41;;;;;;;3.38;1.70;;;;;;;;;;5125423;27;20045;-55
2022/07/20 06:12:07;;;;;;;3.08;1.90;;;;;;;;;;5136409;27;20100;-55
2022/07/20 06:14:33;;;;;;;2.00;1.35;;;;;;;;;;5132755;27;20051;-55
2022/07/20 06:16:59;;;;;;;3.75;1.80;;;;;;;;;;5133509;27;20110;-55
2022/07/20 06:19:25;;;;;;;2.40;1.60;;;;;;;;;;5132832;27;20095;-55
2022/07/20 06:21:51;;;;;;;3.47;1.65;;;;;;;;;;5131658;27;20046;-55
2022/07/20 06:24:18;;;;;;;2.65;1.65;;;;;;;;;;5133633;27;20039;-55
2022/07/20 06:26:44;;;;;;;3.05;2.28;;;;;;;;;;5135301;27;20042;-55
2022/07/20 06:29:10;;;;;;;3.17;1.67;;;;;;;;;;5133022;27;20035;-55
2022/07/20 06:31:36;;;;;;;2.72;1.75;;;;;;;;;;5132625;27;20443;-55
2022/07/20 06:34:04;;;;;;;2.17;1.67;;;;;;;;;;5136790;27;20027;-55
2022/07/20 06:36:30;;;;;;;3.20;1.80;;;;;;;;;;5148724;27;20046;-55
2022/07/20 06:38:56;;;;;;;3.03;1.60;;;;;;;;;;5133521;27;20126;-55
2022/07/20 06:41:22;;;;;;;2.30;1.50;;;;;;;;;;5127946;27;20049;-55
2022/07/20 06:43:48;;;;;;;2.45;1.70;;;;;;;;;;5124682;27;20039;-55
2022/07/20 06:46:14;;;;;;;3.50;1.42;;;;;;;;;;5132573;27;20042;-55
2022/07/20 06:48:40;;;;;;;3.15;1.80;;;;;;;;;;5131733;27;20054;-55
2022/07/20 06:51:07;;;;;;;2.45;1.63;;;;;;;;;;5129615;27;20070;-55
2022/07/20 06:53:33;;;;;;;1.85;1.50;;;;;;;;;;5132213;27;20035;-56
2022/07/20 06:56:00;;;;;;;2.15;1.42;;;;;;;;;;5132506;27;20121;-55
2022/07/20 06:58:26;;;;;;;2.35;1.50;;;;;;;;;;5114616;27;20047;-55
2022/07/20 07:00:52;;;;;;;2.63;1.67;;;;;;;;;;5132359;27;20051;-55
2022/07/20 07:03:18;;;;;;;2.33;1.60;;;;;;;;;;5132410;27;20130;-55
2022/07/20 07:05:44;;;;;;;2.67;1.80;;;;;;;;;;5130427;27;20498;-55
2022/07/20 07:08:10;;;;;;;2.55;1.60;;;;;;;;;;5132324;27;20496;-55
2022/07/20 07:10:36;;;;;;;2.45;1.70;;;;;;;;;;5131982;27;20387;-55
2022/07/20 07:13:02;;;;;;;2.05;1.40;;;;;;;;;;5134805;27;20467;-56
2022/07/20 07:15:28;;;;;;;2.08;1.63;;;;;;;;;;5113209;27;20054;-56
2022/07/20 07:17:54;;;;;;;2.15;1.60;;;;;;;;;;5131711;27;20736;-56
2022/07/20 07:20:21;;;;;;;1.77;1.50;;;;;;;;;;5132515;27;20511;-56
2022/07/20 07:22:47;;;;;;;2.95;1.50;;;;;;;;;;5128930;27;20048;-56
2022/07/20 07:25:13;;;;;;;4.07;1.90;;;;;;;;;;5131479;27;20035;-56
2022/07/20 07:27:39;;;;;;;2.33;1.60;;;;;;;;;;5143146;27;20043;-56
2022/07/20 07:30:05;;;;;;;2.15;1.48;;;;;;;;;;5112147;27;20066;-56
2022/07/20 07:32:31;;;;;;;3.85;2.08;;;;;;;;;;5132339;27;20039;-56
2022/07/20 07:34:57;;;;;;;3.17;1.80;;;;;;;;;;5134999;27;20035;-56
2022/07/20 07:37:24;;;;;;;1.85;1.48;;;;;;;;;;5128585;27;20035;-56
2022/07/20 07:39:50;;;;;;;2.38;1.60;;;;;;;;;;5130394;27;20035;-56
2022/07/20 07:42:16;;;;;;;2.75;1.67;;;;;;;;;;5130729;27;20472;-56
2022/07/20 07:44:42;;;;;;;2.13;1.50;;;;;;;;;;5129481;27;20034;-56
2022/07/20 07:47:08;;;;;;;2.33;1.52;;;;;;;;;;5120754;27;20125;-56
2022/07/20 07:49:34;;;;;;;3.38;1.80;;;;;;;;;;5137550;27;20046;-56
2022/07/20 07:52:00;;;;;;;3.33;1.85;;;;;;;;;;5146538;27;20091;-56
2022/07/20 07:54:26;;;;;;;3.80;2.00;;;;;;;;;;5125068;27;20089;-56
2022/07/20 07:56:52;;;;;;;3.22;2.00;;;;;;;;;;5133217;27;20061;-56
2022/07/20 07:59:18;;;;;;;5.57;2.10;;;;;;;;;;5131737;27;20260;-56
2022/07/20 08:01:44;;;;;;;3.47;1.90;;;;;;;;;;5112321;27;20051;-56
2022/07/20 08:04:11;;;;;;;2.75;1.83;;;;;;;;;;5137567;27;20488;-56
2022/07/20 08:06:38;;;;;;;8.95;2.22;;;;;;;;;;5128887;27;20051;-56
2022/07/20 08:09:04;;;;;;;3.13;1.95;;;;;;;;;;5140740;27;20046;-56
2022/07/20 08:11:30;;;;;;;7.13;2.70;;;;;;;;;;5152544;27;20046;-56
2022/07/20 08:13:56;;;;;;;3.40;2.00;;;;;;;;;;5151259;27;20138;-56
2022/07/20 08:16:22;;;;;;;6.45;2.65;;;;;;;;;;5130597;27;20039;-56
2022/07/20 08:18:48;;;;;;;3.70;2.47;;;;;;;;;;5129359;28;20130;-56
2022/07/20 08:21:14;;;;;;;7.18;3.40;;;;;;;;;;5129671;27;20069;-57
2022/07/20 08:23:40;;;;;;;5.00;3.03;;;;;;;;;;5130088;28;20050;-56
2022/07/20 08:26:06;;;;;;;5.20;2.85;;;;;;;;;;5113042;28;20046;-56
2022/07/20 08:28:32;;;;;;;5.30;3.13;;;;;;;;;;5130218;28;20047;-55
2022/07/20 08:31:00;;;;;;;7.70;3.42;;;;;;;;;;5130409;28;20149;-55
2022/07/20 08:33:26;;;;;;;8.43;3.88;;;;;;;;;;5140912;27;20054;-56
2022/07/20 08:35:52;;;;;;;6.88;3.65;;;;;;;;;;5147102;27;20035;-55
2022/07/20 08:38:18;;;;;;;9.02;3.95;;;;;;;;;;5130557;28;20038;-55
2022/07/20 08:40:44;;;;;;;10.77;3.80;;;;;;;;;;5135445;27;20042;-56
2022/07/20 08:43:13;;;;;;;7.38;3.80;;;;;;;;;;5131665;27;20046;-56
2022/07/20 08:45:39;;;;;;;7.90;3.78;;;;;;;;;;5114951;27;20061;-56
2022/07/20 08:48:11;;;;;;;5.88;3.42;;;;;;;;;;5151252;27;20102;-55
2022/07/20 08:50:37;;;;;;;6.95;3.45;;;;;;;;;;5151227;27;20050;-56
2022/07/20 08:53:03;;;;;;;5.53;3.20;;;;;;;;;;5137374;27;20581;-56
2022/07/20 08:55:29;;;;;;;6.32;3.35;;;;;;;;;;5131289;27;20505;-56
2022/07/20 08:57:56;;;;;;;7.93;4.35;;;;;;;;;;5116345;27;20089;-56
2022/07/20 09:00:22;;;;;;;7.05;3.85;;;;;;;;;;5134946;27;20086;-56
2022/07/20 09:03:01;;;;;;;7.43;3.97;;;;;;;;;;5117052;27;20047;-55
2022/07/20 09:05:28;;;;;;;6.50;4.00;;;;;;;;;;5123030;27;20111;-55
2022/07/20 09:07:55;;;;;;;9.35;4.75;;;;;;;;;;5143428;27;20043;-55
2022/07/20 09:10:22;;;;;;;9.05;3.92;;;;;;;;;;5143550;27;20042;-55
2022/07/20 09:12:57;;;;;;;9.52;4.53;;;;;;;;;;5137292;27;20074;-55
2022/07/20 09:15:31;;;;;;;7.75;3.92;;;;;;;;;;5136436;27;20098;-56
2022/07/20 09:18:04;;;;;;;12.55;6.28;;;;;;;;;;5141166;27;20510;-56
2022/07/20 09:20:31;;;;;;;10.73;5.63;;;;;;;;;;5139547;27;20505;-56
2022/07/20 09:23:04;;;;;;;10.10;5.70;;;;;;;;;;5115258;27;20084;-56
2022/07/20 09:25:30;;;;;;;15.65;6.40;;;;;;;;;;5124284;27;20092;-56
2022/07/20 09:27:57;;;;;;;11.45;6.03;;;;;;;;;;5150309;27;20039;-56
2022/07/20 09:30:23;;;;;;;13.65;5.88;;;;;;;;;;5155339;27;20046;-56
2022/07/20 09:32:49;;;;;;;13.93;6.65;;;;;;;;;;5154813;27;20068;-56
2022/07/20 09:35:15;;;;;;;13.18;6.78;;;;;;;;;;5154117;27;20035;-56
2022/07/20 09:37:41;;;;;;;17.40;6.78;;;;;;;;;;5152862;27;20043;-56
2022/07/20 09:40:07;;;;;;;10.27;5.70;;;;;;;;;;5141538;27;20072;-56
2022/07/20 09:42:46;;;;;;;14.07;7.43;;;;;;;;;;5147984;27;20050;-56
2022/07/20 09:45:39;;;;;;;13.43;7.45;;;;;;;;;;5144302;27;20042;-56
2022/07/20 09:48:06;;;;;;;14.30;7.00;;;;;;;;;;5129278;27;20490;-56
2022/07/20 09:50:33;;;;;;;13.25;7.07;;;;;;;;;;5132437;27;20159;-56
2022/07/20 09:52:59;;;;;;;12.20;6.43;;;;;;;;;;5142577;27;20046;-56
2022/07/20 09:55:26;;;;;;;14.00;7.05;;;;;;;;;;5144621;27;20047;-56
2022/07/20 09:57:53;;;;;;;13.98;7.10;;;;;;;;;;5145578;27;20043;-56
2022/07/20 10:00:19;;;;;;;13.93;7.35;;;;;;;;;;5142100;27;20039;-56
2022/07/20 10:02:47;;;;;;;15.13;7.35;;;;;;;;;;5133694;27;20062;-56
2022/07/20 10:05:14;;;;;;;13.27;6.40;;;;;;;;;;5134983;27;20517;-56
2022/07/20 10:07:42;;;;;;;13.88;7.38;;;;;;;;;;5153100;27;20493;-56
2022/07/20 10:10:08;;;;;;;12.73;7.15;;;;;;;;;;5146606;27;20416;-56
2022/07/20 10:12:34;;;;;;;15.48;7.60;;;;;;;;;;5139333;27;20047;-56
2022/07/20 10:15:01;;;;;;;15.15;7.65;;;;;;;;;;5133174;27;20441;-56
2022/07/20 10:17:30;;;;;;;16.73;7.22;;;;;;;;;;5137108;27;20054;-56
2022/07/20 10:19:57;;;;;;;16.42;6.82;;;;;;;;;;5153495;27;20046;-56
2022/07/20 10:22:23;;;;;;;16.48;6.78;;;;;;;;;;5152723;27;20107;-56
2022/07/20 10:25:25;;;;;;;12.93;6.47;;;;;;;;;;5154330;27;20042;-56
2022/07/20 10:27:51;;;;;;;12.90;6.15;;;;;;;;;;5082712;27;20058;-56
2022/07/20 10:30:18;;;;;;;13.23;6.28;;;;;;;;;;5135366;27;20061;-55
2022/07/20 10:32:58;;;;;;;16.80;7.25;;;;;;;;;;5154177;27;20356;-55
2022/07/20 10:35:26;;;;;;;13.18;6.22;;;;;;;;;;5132034;27;20043;-56
2022/07/20 10:37:52;;;;;;;13.57;6.38;;;;;;;;;;5132258;27;20081;-56
2022/07/20 10:40:23;;;;;;;11.82;7.10;;;;;;;;;;5132958;27;20165;-56
2022/07/20 10:42:51;;;;;;;14.25;7.03;;;;;;;;;;5133242;27;20066;-56
2022/07/20 10:45:19;;;;;;;12.98;6.35;;;;;;;;;;5132440;27;20897;-56
2022/07/20 10:47:45;;;;;;;12.18;7.07;;;;;;;;;;5114735;27;20051;-56
2022/07/20 10:50:16;;;;;;;13.90;6.50;;;;;;;;;;5132182;27;20395;-56
2022/07/20 10:52:43;;;;;;;14.80;6.80;;;;;;;;;;5135395;27;20084;-56
2022/07/20 10:55:28;;;;;;;15.05;6.28;;;;;;;;;;5140050;27;20042;-56
2022/07/20 10:57:55;;;;;;;11.47;6.07;;;;;;;;;;5148598;27;20097;-56
2022/07/20 11:00:21;;;;;;;15.23;5.75;;;;;;;;;;5133157;27;20039;-56
2022/07/20 11:02:47;;;;;;;12.63;6.53;;;;;;;;;;5137394;27;20043;-56
2022/07/20 11:05:20;;;;;;;10.20;5.72;;;;;;;;;;5129281;27;20487;-56
2022/07/20 11:07:46;;;;;;;13.10;7.63;;;;;;;;;;5130035;27;20039;-56
2022/07/20 11:10:26;;;;;;;12.95;6.45;;;;;;;;;;5131683;27;20096;-56
2022/07/20 11:12:58;;;;;;;13.68;7.30;;;;;;;;;;5132023;27;20046;-56
2022/07/20 11:15:37;;;;;;;12.77;6.07;;;;;;;;;;5132245;27;20047;-56
2022/07/20 11:18:03;;;;;;;13.05;6.45;;;;;;;;;;5134402;27;20054;-56
2022/07/20 11:20:29;;;;;;;13.65;6.60;;;;;;;;;;5135213;27;20043;-56
2022/07/20 11:22:56;;;;;;;13.90;6.35;;;;;;;;;;5131947;27;20047;-56
2022/07/20 11:25:24;;;;;;;12.68;6.30;;;;;;;;;;5130611;27;20066;-56
2022/07/20 11:28:03;;;;;;;11.50;6.25;;;;;;;;;;5132303;27;20119;-56
2022/07/20 11:30:35;;;;;;;9.88;5.65;;;;;;;;;;5131831;27;20047;-56
2022/07/20 11:33:01;;;;;;;12.32;6.13;;;;;;;;;;5131865;27;20179;-56
2022/07/20 11:35:27;;;;;;;11.77;6.20;;;;;;;;;;5130884;27;20046;-56
2022/07/20 11:37:54;;;;;;;12.73;5.88;;;;;;;;;;5131216;27;20044;-56
2022/07/20 11:40:20;;;;;;;10.20;5.75;;;;;;;;;;5140263;27;20034;-56
2022/07/20 11:43:10;;;;;;;10.88;6.10;;;;;;;;;;5132250;27;20043;-56
2022/07/20 11:45:36;;;;;;;10.52;5.65;;;;;;;;;;5111396;28;20043;-56
2022/07/20 11:48:14;;;;;;;11.90;6.03;;;;;;;;;;5111199;28;20463;-56
2022/07/20 11:50:40;;;;;;;9.75;5.70;;;;;;;;;;5110157;28;20079;-56
2022/07/20 11:53:21;;;;;;;13.93;5.80;;;;;;;;;;5141704;27;20042;-56
2022/07/20 11:55:47;;;;;;;10.63;5.45;;;;;;;;;;5152559;27;20075;-56
2022/07/20 11:58:13;;;;;;;10.20;5.57;;;;;;;;;;5136325;27;20410;-56
2022/07/20 12:00:39;;;;;;;11.88;6.07;;;;;;;;;;5130592;27;20043;-56
2022/07/20 12:03:06;;;;;;;10.98;5.82;;;;;;;;;;5129288;27;20126;-56
2022/07/20 12:05:33;;;;;;;12.57;5.60;;;;;;;;;;5129761;27;20099;-56
2022/07/20 12:08:13;;;;;;;13.30;5.18;;;;;;;;;;5130191;27;20054;-56
2022/07/20 12:10:41;;;;;;;10.13;4.90;;;;;;;;;;5142426;27;20035;-56
2022/07/20 12:13:07;;;;;;;9.70;4.80;;;;;;;;;;5151805;27;20050;-55
2022/07/20 12:15:34;;;;;;;9.60;5.25;;;;;;;;;;5140419;27;20054;-56
2022/07/20 12:18:00;;;;;;;10.80;6.15;;;;;;;;;;5146043;27;20035;-55
2022/07/20 12:20:27;;;;;;;10.73;5.70;;;;;;;;;;5132534;27;20102;-56
2022/07/20 12:22:56;;;;;;;11.68;6.03;;;;;;;;;;5151231;27;20043;-56
2022/07/20 12:25:23;;;;;;;9.40;5.15;;;;;;;;;;5126934;28;20459;-56
2022/07/20 12:27:49;;;;;;;12.55;5.75;;;;;;;;;;5131654;28;20046;-56
2022/07/20 12:30:25;;;;;;;9.57;5.40;;;;;;;;;;5126485;27;20180;-56
2022/07/20 12:33:06;;;;;;;10.65;5.60;;;;;;;;;;5132908;27;20046;-56
2022/07/20 12:35:33;;;;;;;12.38;5.88;;;;;;;;;;5095698;28;20395;-56
2022/07/20 12:37:59;;;;;;;9.73;5.13;;;;;;;;;;5114218;28;20048;-56
2022/07/20 12:40:38;;;;;;;8.52;4.70;;;;;;;;;;5116292;27;20043;-56
2022/07/20 12:43:05;;;;;;;9.18;4.95;;;;;;;;;;5123017;27;20050;-56
2022/07/20 12:45:31;;;;;;;11.55;5.97;;;;;;;;;;5143747;27;20035;-56
2022/07/20 12:47:57;;;;;;;10.77;5.57;;;;;;;;;;5155972;27;20123;-56
2022/07/20 12:50:23;;;;;;;8.00;4.97;;;;;;;;;;5151804;27;20043;-56
2022/07/20 12:52:50;;;;;;;9.70;4.55;;;;;;;;;;5132884;27;20050;-56
2022/07/20 12:55:16;;;;;;;8.77;4.63;;;;;;;;;;5135792;27;20470;-56
2022/07/20 12:57:42;;;;;;;10.35;4.88;;;;;;;;;;5146356;27;20335;-55
2022/07/20 13:00:08;;;;;;;9.73;4.95;;;;;;;;;;5140656;27;20058;-56
2022/07/20 13:02:34;;;;;;;8.50;4.45;;;;;;;;;;5137673;27;20436;-56
2022/07/20 13:05:00;;;;;;;9.48;4.55;;;;;;;;;;5136364;27;20383;-56
2022/07/20 13:07:27;;;;;;;10.05;4.50;;;;;;;;;;5120445;27;20471;-56
2022/07/20 13:09:53;;;;;;;7.82;4.38;;;;;;;;;;5134853;27;20115;-56
2022/07/20 13:12:19;;;;;;;8.40;4.90;;;;;;;;;;5134474;27;20043;-56
2022/07/20 13:14:45;;;;;;;11.18;5.47;;;;;;;;;;5134408;27;20411;-56
2022/07/20 13:17:13;;;;;;;10.15;4.78;;;;;;;;;;5141401;27;20046;-56
2022/07/20 13:19:40;;;;;;;11.60;6.20;;;;;;;;;;5122016;27;20073;-56
2022/07/20 13:22:06;;;;;;;9.40;5.00;;;;;;;;;;5135583;27;20047;-56
2022/07/20 13:24:32;;;;;;;8.88;5.13;;;;;;;;;;5095334;28;20126;-56
2022/07/20 13:26:58;;;;;;;11.05;5.28;;;;;;;;;;5120968;27;20081;-56
2022/07/20 13:29:24;;;;;;;12.25;5.32;;;;;;;;;;5133582;27;20432;-56
2022/07/20 13:31:50;;;;;;;12.52;5.53;;;;;;;;;;5135299;27;20104;-56
2022/07/20 13:34:16;;;;;;;9.18;5.05;;;;;;;;;;5138887;27;20050;-56
2022/07/20 13:36:42;;;;;;;8.60;5.05;;;;;;;;;;5131178;27;20491;-56
2022/07/20 13:39:08;;;;;;;9.45;4.75;;;;;;;;;;5139007;27;20080;-56
2022/07/20 13:41:34;;;;;;;13.18;5.32;;;;;;;;;;5115421;27;21859;-56
2022/07/20 13:44:00;;;;;;;8.93;4.70;;;;;;;;;;5074829;27;21850;-56
2022/07/20 13:46:27;;;;;;;8.57;4.68;;;;;;;;;;5097611;27;20047;-56
2022/07/20 13:48:56;;;;;;;11.65;4.85;;;;;;;;;;5099754;27;20097;-56
2022/07/20 13:51:22;;;;;;;8.48;4.25;;;;;;;;;;5096814;27;20051;-56
2022/07/20 13:53:48;;;;;;;10.55;4.60;;;;;;;;;;5100371;27;20062;-56
2022/07/20 13:56:14;;;;;;;8.23;4.32;;;;;;;;;;5116452;27;20107;-56
2022/07/20 13:58:40;;;;;;;9.60;4.93;;;;;;;;;;5138558;27;20043;-56
2022/07/20 14:01:07;;;;;;;6.78;3.85;;;;;;;;;;5134527;27;20047;-56
2022/07/20 14:03:33;;;;;;;9.80;5.18;;;;;;;;;;5132278;27;20160;-56
2022/07/20 14:05:59;;;;;;;9.27;4.70;;;;;;;;;;5131813;27;20047;-56
2022/07/20 14:08:26;;;;;;;9.13;4.85;;;;;;;;;;5131994;27;20065;-56
2022/07/20 14:10:52;;;;;;;8.57;4.13;;;;;;;;;;5136108;27;20513;-56
2022/07/20 14:13:21;;;;;;;8.13;4.18;;;;;;;;;;5134163;27;20060;-56
2022/07/20 14:15:48;;;;;;;8.55;4.43;;;;;;;;;;5134102;27;20042;-56
2022/07/20 14:18:14;;;;;;;10.48;4.75;;;;;;;;;;5140506;27;20438;-56
2022/07/20 14:20:40;;;;;;;8.82;4.32;;;;;;;;;;5141395;27;20045;-56
2022/07/20 14:23:07;;;;;;;7.03;4.05;;;;;;;;;;5153454;27;20039;-56
2022/07/20 14:25:33;;;;;;;7.55;3.55;;;;;;;;;;5145730;27;20046;-56
2022/07/20 14:27:59;;;;;;;8.75;4.57;;;;;;;;;;5143186;27;20035;-56
2022/07/20 14:30:25;;;;;;;7.20;3.67;;;;;;;;;;5148978;27;20055;-56
2022/07/20 14:32:51;;;;;;;6.95;3.80;;;;;;;;;;5133247;27;20050;-56
2022/07/20 14:35:17;;;;;;;7.63;4.05;;;;;;;;;;5142197;27;20036;-56
2022/07/20 14:37:43;;;;;;;8.75;4.00;;;;;;;;;;5131312;27;20806;-56
2022/07/20 14:40:10;;;;;;;9.85;5.00;;;;;;;;;;5133389;27;20047;-56
2022/07/20 14:42:36;;;;;;;7.78;4.15;;;;;;;;;;5148315;27;20043;-56
2022/07/20 14:45:02;;;;;;;7.07;3.80;;;;;;;;;;5132622;27;20045;-56